createdAt,value
2022-08-03T00:00:26.456Z,100564.88
2022-08-03T00:02:53.437Z,100564.88
2022-08-03T00:05:20.449Z,100562.38
2022-08-03T00:07:48.470Z,100569.06
2022-08-03T00:10:16.715Z,100568.72
2022-08-03T00:12:43.516Z,100570.91
2022-08-03T00:15:15.265Z,100566.00
2022-08-03T00:17:52.935Z,100568.97
2022-08-03T00:20:24.114Z,100576.50
2022-08-03T00:22:51.620Z,100566.34
2022-08-03T00:25:18.468Z,100575.09
2022-08-03T00:27:45.630Z,100569.16
2022-08-03T00:30:16.848Z,100573.13
2022-08-03T00:32:45.338Z,100573.84
2022-08-03T00:35:32.581Z,100575.09
2022-08-03T00:38:00.029Z,100565.56
2022-08-03T00:40:27.161Z,100566.91
2022-08-03T00:43:02.026Z,100564.06
2022-08-03T00:45:37.602Z,100568.19
2022-08-03T00:48:05.966Z,100575.25
2022-08-03T00:50:54.174Z,100572.91
2022-08-03T00:53:21.233Z,100573.19
2022-08-03T00:55:48.055Z,100572.59
2022-08-03T00:58:15.194Z,100570.13
2022-08-03T01:00:42.574Z,100568.09
2022-08-03T01:03:11.882Z,100570.38
2022-08-03T01:05:50.887Z,100568.31
2022-08-03T01:08:26.340Z,100569.94
2022-08-03T01:11:11.420Z,100571.41
2022-08-03T01:14:04.222Z,100576.88
2022-08-03T01:16:37.027Z,100569.63
2022-08-03T01:19:31.580Z,100574.44
2022-08-03T01:22:21.838Z,100573.81
2022-08-03T01:24:48.613Z,100577.78
2022-08-03T01:27:21.359Z,100571.16
2022-08-03T01:29:48.109Z,100576.97
2022-08-03T01:32:58.119Z,100581.72
2022-08-03T01:35:11.606Z,100576.78
2022-08-03T01:38:06.878Z,100574.91
2022-08-03T01:40:36.805Z,100572.63
2022-08-03T01:43:06.482Z,100567.25
2022-08-03T01:45:34.495Z,100568.69
2022-08-03T01:48:02.796Z,100566.66
2022-08-03T01:50:31.953Z,100559.63
2022-08-03T01:52:59.650Z,100562.97
2022-08-03T01:55:28.383Z,100565.22
2022-08-03T01:58:05.178Z,100558.59
2022-08-03T02:00:36.404Z,100559.03
2022-08-03T02:03:06.430Z,100561.94
2022-08-03T02:05:34.377Z,100560.88
2022-08-03T02:08:04.569Z,100561.94
2022-08-03T02:10:35.568Z,100560.69
2022-08-03T02:13:05.895Z,100561.31
2022-08-03T02:15:34.003Z,100558.81
2022-08-03T02:18:03.252Z,100551.19
2022-08-03T02:20:33.220Z,100566.09
2022-08-03T02:23:00.361Z,100561.97
2022-08-03T02:25:28.711Z,100559.91
2022-08-03T02:27:58.455Z,100562.81
2022-08-03T02:30:38.024Z,100563.41
2022-08-03T02:33:07.678Z,100568.19
2022-08-03T02:35:36.604Z,100564.69
2022-08-03T02:38:07.645Z,100565.50
2022-08-03T02:40:34.501Z,100571.72
2022-08-03T02:43:07.698Z,100574.63
2022-08-03T02:45:45.392Z,100574.81
2022-08-03T02:48:17.991Z,100575.66
2022-08-03T02:50:45.800Z,100575.22
2022-08-03T02:53:14.077Z,100579.34
2022-08-03T02:55:43.109Z,100567.31
2022-08-03T02:58:14.074Z,100566.69
2022-08-03T03:00:44.067Z,100571.69
2022-08-03T03:03:11.400Z,100577.50
2022-08-03T03:05:52.375Z,100586.81
2022-08-03T03:08:26.247Z,100583.09
2022-08-03T03:10:58.206Z,100575.22
2022-08-03T03:13:27.054Z,100591.78
2022-08-03T03:15:56.611Z,100590.34
2022-08-03T03:18:25.120Z,100583.28
2022-08-03T03:20:54.146Z,100588.44
2022-08-03T03:23:23.393Z,100591.13
2022-08-03T03:25:52.422Z,100590.69
2022-08-03T03:28:19.670Z,100586.16
2022-08-03T03:30:52.674Z,100587.22
2022-08-03T03:33:21.096Z,100593.19
2022-08-03T03:35:48.478Z,100603.13
2022-08-03T03:38:15.366Z,100589.06
2022-08-03T03:40:42.502Z,100597.31
2022-08-03T03:43:11.090Z,100594.22
2022-08-03T03:45:38.524Z,100584.28
2022-08-03T03:48:05.855Z,100586.75
2022-08-03T17:59:09.004Z,100406.66
2022-08-03T18:02:11.576Z,100400.41
2022-08-03T18:04:55.447Z,100403.97
2022-08-03T18:07:40.938Z,100408.13
2022-08-03T18:10:11.347Z,100410.03
2022-08-03T18:12:52.657Z,100406.22
2022-08-03T18:15:43.974Z,100417.13
2022-08-03T18:18:11.596Z,100416.03
2022-08-03T18:20:42.148Z,100414.41
2022-08-03T18:23:24.846Z,100426.41
2022-08-03T18:26:00.405Z,100425.84
2022-08-03T18:28:28.881Z,100424.78
2022-08-03T18:30:55.900Z,100438.38
2022-08-03T18:34:16.178Z,100438.91
2022-08-03T18:36:18.042Z,100436.94
2022-08-03T18:38:51.898Z,100435.81
2022-08-03T18:41:31.938Z,100440.38
2022-08-03T18:44:53.161Z,100448.19
2022-08-03T18:47:50.690Z,100438.50
2022-08-03T18:50:49.758Z,100456.59
2022-08-03T18:54:04.031Z,100461.34
2022-08-03T18:56:44.447Z,100458.81
2022-08-03T18:59:36.591Z,100463.56
2022-08-03T19:02:29.212Z,100459.19
2022-08-03T19:05:05.847Z,100468.66
2022-08-03T19:07:36.247Z,100467.22
2022-08-03T19:10:09.446Z,100463.69
2022-08-03T19:12:45.734Z,100466.06
2022-08-03T19:15:15.589Z,100472.59
2022-08-03T19:17:53.159Z,100469.56
2022-08-03T19:20:22.760Z,100470.78
2022-08-03T19:22:53.282Z,100470.69
2022-08-03T19:25:20.497Z,100463.94
2022-08-03T19:28:03.223Z,100475.63
2022-08-03T19:30:39.123Z,100474.16
2022-08-03T19:33:09.248Z,100474.63
2022-08-03T19:35:52.159Z,100476.69
2022-08-03T19:38:28.673Z,100474.41
2022-08-03T19:41:02.479Z,100474.72
2022-08-03T19:44:08.457Z,100476.63
2022-08-03T19:46:46.912Z,100480.16
2022-08-03T19:49:18.590Z,100478.25
2022-08-03T19:52:00.549Z,100485.09
2022-08-03T19:54:36.718Z,100485.75
2022-08-03T19:57:17.713Z,100480.16
2022-08-03T19:59:49.984Z,100484.84
2022-08-03T20:02:26.654Z,100477.25
2022-08-03T20:04:57.778Z,100483.47
2022-08-03T20:07:28.467Z,100494.91
2022-08-03T20:09:56.595Z,100494.31
2022-08-03T20:15:13.288Z,100499.94
2022-08-03T20:17:55.964Z,100493.97
2022-08-03T20:20:29.821Z,100502.09
2022-08-03T20:22:58.419Z,100497.00
2022-08-03T20:25:37.583Z,100485.81
2022-08-03T20:28:26.600Z,100499.34
2022-08-03T20:30:53.820Z,100496.84
2022-08-03T20:33:27.816Z,100493.53
2022-08-03T20:36:07.824Z,100496.22
2022-08-03T20:38:43.715Z,100503.28
2022-08-03T20:41:14.175Z,100495.03
2022-08-03T20:43:41.624Z,100498.06
2022-08-03T20:46:29.083Z,100491.59
2022-08-03T20:48:58.940Z,100497.84
2022-08-03T20:51:49.728Z,100494.94
2022-08-03T20:54:22.442Z,100487.16
2022-08-03T20:56:58.194Z,100487.88
2022-08-03T20:59:38.533Z,100480.16
2022-08-03T21:02:19.785Z,100492.81
2022-08-03T21:04:56.300Z,100490.16
2022-08-03T21:07:24.313Z,100497.44
2022-08-03T21:09:55.913Z,100500.34
2022-08-03T21:12:35.611Z,100497.72
2022-08-03T21:13:03.678Z,100496.88
2022-08-03T21:15:05.335Z,100500.34
2022-08-03T21:17:41.429Z,100503.41
2022-08-03T21:20:10.818Z,100507.25
2022-08-03T21:22:38.930Z,100505.06
2022-08-03T21:25:10.435Z,100509.63
2022-08-03T21:27:37.741Z,100502.16
2022-08-03T21:30:08.390Z,100511.91
2022-08-03T21:32:36.337Z,100513.19
2022-08-03T21:35:03.190Z,100518.13
2022-08-03T21:37:30.054Z,100510.03
2022-08-03T21:39:57.100Z,100518.69
2022-08-03T21:42:24.378Z,100514.97
2022-08-03T21:44:54.436Z,100514.16
2022-08-03T21:47:24.657Z,100515.84
2022-08-03T21:50:08.859Z,100513.63
2022-08-03T21:52:45.589Z,100509.84
2022-08-03T21:55:18.440Z,100511.34
2022-08-03T21:57:53.174Z,100512.44
2022-08-03T22:00:22.991Z,100510.03
2022-08-03T22:02:55.774Z,100514.41
2022-08-03T22:05:29.105Z,100513.63
2022-08-03T22:08:13.923Z,100516.31
2022-08-03T22:10:44.178Z,100520.09
2022-08-03T22:13:13.026Z,100515.34
2022-08-03T22:15:40.211Z,100521.16
2022-08-03T22:18:06.986Z,100526.38
2022-08-03T22:20:33.897Z,100534.31
2022-08-03T22:23:03.991Z,100518.38
2022-08-03T22:25:33.339Z,100527.13
2022-08-03T22:28:08.127Z,100526.34
2022-08-03T22:30:35.546Z,100528.41
2022-08-03T22:33:05.220Z,100531.84
2022-08-03T22:35:49.643Z,100530.28
2022-08-03T22:38:18.397Z,100517.47
2022-08-03T22:40:48.594Z,100526.38
2022-08-03T22:43:15.561Z,100521.56
2022-08-03T22:46:07.582Z,100523.91
2022-08-03T22:48:33.036Z,100525.78
2022-08-03T22:51:00.488Z,100529.19
2022-08-03T22:53:27.962Z,100529.91
2022-08-03T22:55:55.018Z,100521.84
2022-08-03T22:58:22.088Z,100530.38
2022-08-03T23:00:55.682Z,100531.66
2022-08-03T23:04:00.837Z,100527.75
2022-08-03T23:06:15.549Z,100524.91
2022-08-03T23:08:46.178Z,100525.31
2022-08-03T23:11:13.877Z,100525.50
2022-08-03T23:13:41.425Z,100524.03
2022-08-03T23:16:08.897Z,100525.31
2022-08-03T23:18:39.670Z,100527.63
2022-08-03T23:21:10.920Z,100522.41
2022-08-03T23:23:44.247Z,100518.88
2022-08-03T23:26:12.409Z,100523.16
2022-08-03T23:28:41.123Z,100520.84
2022-08-03T23:31:08.452Z,100520.38
2022-08-03T23:33:38.702Z,100517.19
2022-08-03T23:36:18.755Z,100520.25
2022-08-03T23:38:53.649Z,100513.06
2022-08-03T23:41:20.631Z,100510.81
2022-08-03T23:43:53.715Z,100518.13
2022-08-03T23:46:27.341Z,100515.47
2022-08-03T23:48:56.651Z,100508.19
2022-08-03T23:51:42.051Z,100513.13
2022-08-03T23:54:37.066Z,100511.03
2022-08-03T23:57:29.444Z,100512.25
